Weather at St Hyacinthe Airport

Public forecast

Using degrees Celsius for public forecast. Weather courtesy of forecast.io.

Closest aviation weather report (METAR) to St Hyacinthe Airport

Closest report is MontrĂ©al / Saint-Hubert Airport, 17.7 nm (32.8 km) WSW. Retrieved 2021/05/12 05:07 UTC (0 seconds ago):

CYHU 120507Z AUTO 27010KT 9SM SCT024 OVC047 07/05 A2994 RMK SLP142

Closest aviation forecast (TAF) to St Hyacinthe Airport

Closest forecast is MontrĂ©al / Saint-Hubert Airport, 17.7 nm (32.8 km) WSW. Retrieved 2021-05-12 00:42 UTC (4 hours ago):

TAF TAF CYHU 112338Z 1200/1224 24010G20KT P6SM BKN040 BKN050 BKN070 TEMPO 1200/1205 P6SM -SHRA BKN020 OVC040 FM120500 27010KT P6SM BKN040 BKN080 FM121200 23010KT P6SM FEW040 FM121800 32012G22KT P6SM BKN060 FM122300 31010KT P6SM FEW060 RMK FCST BASED ON AUTO OBS NXT FCST BY 120600Z